sensor_id;sensor_type;location;lat;lon;timestamp;P1;durP1;ratioP1;P2;durP2;ratioP2
16135;SDS011;8173;48.354;9.248;2023-03-19T00:01:35;0.73;;;0.73;;
16135;SDS011;8173;48.354;9.248;2023-03-19T00:04:02;0.60;;;0.60;;
16135;SDS011;8173;48.354;9.248;2023-03-19T00:06:28;0.70;;;0.70;;
16135;SDS011;8173;48.354;9.248;2023-03-19T00:08:56;0.70;;;0.70;;
16135;SDS011;8173;48.354;9.248;2023-03-19T00:11:22;0.70;;;0.70;;
16135;SDS011;8173;48.354;9.248;2023-03-19T00:13:49;0.60;;;0.60;;
16135;SDS011;8173;48.354;9.248;2023-03-19T00:16:18;0.70;;;0.70;;
16135;SDS011;8173;48.354;9.248;2023-03-19T00:18:44;0.70;;;0.70;;
16135;SDS011;8173;48.354;9.248;2023-03-19T00:21:11;1.13;;;1.13;;
16135;SDS011;8173;48.354;9.248;2023-03-19T00:23:38;0.70;;;0.70;;
16135;SDS011;8173;48.354;9.248;2023-03-19T00:26:05;0.60;;;0.60;;
16135;SDS011;8173;48.354;9.248;2023-03-19T00:28:32;0.60;;;0.60;;
16135;SDS011;8173;48.354;9.248;2023-03-19T00:31:05;0.60;;;0.60;;
16135;SDS011;8173;48.354;9.248;2023-03-19T00:33:34;0.70;;;0.70;;
16135;SDS011;8173;48.354;9.248;2023-03-19T00:36:01;0.70;;;0.70;;
16135;SDS011;8173;48.354;9.248;2023-03-19T00:38:29;0.70;;;0.70;;
16135;SDS011;8173;48.354;9.248;2023-03-19T00:40:56;1.25;;;1.15;;
16135;SDS011;8173;48.354;9.248;2023-03-19T00:43:23;0.70;;;0.70;;
16135;SDS011;8173;48.354;9.248;2023-03-19T00:45:51;0.70;;;0.70;;
16135;SDS011;8173;48.354;9.248;2023-03-19T00:48:18;0.95;;;0.95;;
16135;SDS011;8173;48.354;9.248;2023-03-19T00:50:46;0.80;;;0.80;;
16135;SDS011;8173;48.354;9.248;2023-03-19T00:53:13;1.30;;;1.20;;
16135;SDS011;8173;48.354;9.248;2023-03-19T00:55:40;2.97;;;1.50;;
16135;SDS011;8173;48.354;9.248;2023-03-19T00:58:07;1.40;;;1.30;;
16135;SDS011;8173;48.354;9.248;2023-03-19T01:00:34;0.70;;;0.70;;
16135;SDS011;8173;48.354;9.248;2023-03-19T01:03:02;0.60;;;0.60;;
16135;SDS011;8173;48.354;9.248;2023-03-19T01:05:29;0.60;;;0.60;;
16135;SDS011;8173;48.354;9.248;2023-03-19T01:07:57;0.50;;;0.50;;
16135;SDS011;8173;48.354;9.248;2023-03-19T01:10:24;0.90;;;0.90;;
16135;SDS011;8173;48.354;9.248;2023-03-19T01:12:51;0.70;;;0.70;;
16135;SDS011;8173;48.354;9.248;2023-03-19T01:15:18;0.70;;;0.70;;
16135;SDS011;8173;48.354;9.248;2023-03-19T01:17:45;0.70;;;0.70;;
16135;SDS011;8173;48.354;9.248;2023-03-19T01:20:12;0.60;;;0.60;;
16135;SDS011;8173;48.354;9.248;2023-03-19T01:22:42;0.73;;;0.73;;
16135;SDS011;8173;48.354;9.248;2023-03-19T01:25:12;0.70;;;0.70;;
16135;SDS011;8173;48.354;9.248;2023-03-19T01:27:39;2.30;;;1.10;;
16135;SDS011;8173;48.354;9.248;2023-03-19T01:30:06;0.80;;;0.80;;
16135;SDS011;8173;48.354;9.248;2023-03-19T01:32:34;1.10;;;1.05;;
16135;SDS011;8173;48.354;9.248;2023-03-19T01:35:01;0.60;;;0.60;;
16135;SDS011;8173;48.354;9.248;2023-03-19T01:37:28;0.60;;;0.60;;
16135;SDS011;8173;48.354;9.248;2023-03-19T01:39:54;0.70;;;0.70;;
16135;SDS011;8173;48.354;9.248;2023-03-19T01:42:22;0.70;;;0.70;;
16135;SDS011;8173;48.354;9.248;2023-03-19T01:44:49;0.68;;;0.68;;
16135;SDS011;8173;48.354;9.248;2023-03-19T01:47:17;0.60;;;0.60;;
16135;SDS011;8173;48.354;9.248;2023-03-19T01:49:46;0.50;;;0.50;;
16135;SDS011;8173;48.354;9.248;2023-03-19T01:52:18;0.60;;;0.60;;
16135;SDS011;8173;48.354;9.248;2023-03-19T01:54:45;0.60;;;0.60;;
16135;SDS011;8173;48.354;9.248;2023-03-19T01:57:13;0.60;;;0.60;;
16135;SDS011;8173;48.354;9.248;2023-03-19T01:59:43;0.55;;;0.55;;
16135;SDS011;8173;48.354;9.248;2023-03-19T02:02:14;0.60;;;0.60;;
16135;SDS011;8173;48.354;9.248;2023-03-19T02:04:46;0.60;;;0.60;;
16135;SDS011;8173;48.354;9.248;2023-03-19T02:07:17;0.50;;;0.50;;
16135;SDS011;8173;48.354;9.248;2023-03-19T02:09:45;0.60;;;0.60;;
16135;SDS011;8173;48.354;9.248;2023-03-19T02:12:12;0.60;;;0.60;;
16135;SDS011;8173;48.354;9.248;2023-03-19T02:14:40;1.10;;;0.90;;
16135;SDS011;8173;48.354;9.248;2023-03-19T02:17:08;0.70;;;0.70;;
16135;SDS011;8173;48.354;9.248;2023-03-19T02:19:37;0.70;;;0.70;;
16135;SDS011;8173;48.354;9.248;2023-03-19T02:22:12;0.68;;;0.68;;
16135;SDS011;8173;48.354;9.248;2023-03-19T02:24:44;0.70;;;0.70;;
16135;SDS011;8173;48.354;9.248;2023-03-19T02:27:16;0.60;;;0.60;;
16135;SDS011;8173;48.354;9.248;2023-03-19T02:29:43;0.80;;;0.80;;
16135;SDS011;8173;48.354;9.248;2023-03-19T02:32:10;0.70;;;0.70;;
16135;SDS011;8173;48.354;9.248;2023-03-19T02:34:37;0.60;;;0.60;;
16135;SDS011;8173;48.354;9.248;2023-03-19T02:37:08;0.90;;;0.90;;
16135;SDS011;8173;48.354;9.248;2023-03-19T02:39:40;3.63;;;3.33;;
16135;SDS011;8173;48.354;9.248;2023-03-19T02:42:14;0.70;;;0.70;;
16135;SDS011;8173;48.354;9.248;2023-03-19T02:44:44;0.60;;;0.60;;
16135;SDS011;8173;48.354;9.248;2023-03-19T02:47:11;0.60;;;0.60;;
16135;SDS011;8173;48.354;9.248;2023-03-19T02:49:39;0.70;;;0.70;;
16135;SDS011;8173;48.354;9.248;2023-03-19T02:52:05;0.70;;;0.70;;
16135;SDS011;8173;48.354;9.248;2023-03-19T02:54:33;1.40;;;1.00;;
16135;SDS011;8173;48.354;9.248;2023-03-19T02:56:59;0.60;;;0.60;;
16135;SDS011;8173;48.354;9.248;2023-03-19T02:59:27;0.70;;;0.70;;
16135;SDS011;8173;48.354;9.248;2023-03-19T03:01:55;0.70;;;0.70;;
16135;SDS011;8173;48.354;9.248;2023-03-19T03:04:21;0.70;;;0.70;;
16135;SDS011;8173;48.354;9.248;2023-03-19T03:06:48;0.70;;;0.70;;
16135;SDS011;8173;48.354;9.248;2023-03-19T03:09:15;0.70;;;0.70;;
16135;SDS011;8173;48.354;9.248;2023-03-19T03:11:42;1.38;;;1.27;;
16135;SDS011;8173;48.354;9.248;2023-03-19T03:14:09;0.60;;;0.60;;
16135;SDS011;8173;48.354;9.248;2023-03-19T03:16:37;0.60;;;0.60;;
16135;SDS011;8173;48.354;9.248;2023-03-19T03:19:04;0.95;;;0.95;;
16135;SDS011;8173;48.354;9.248;2023-03-19T03:21:31;0.70;;;0.70;;
16135;SDS011;8173;48.354;9.248;2023-03-19T03:23:58;0.60;;;0.60;;
16135;SDS011;8173;48.354;9.248;2023-03-19T03:26:25;2.67;;;1.35;;
16135;SDS011;8173;48.354;9.248;2023-03-19T03:28:52;1.60;;;1.42;;
16135;SDS011;8173;48.354;9.248;2023-03-19T03:31:18;1.10;;;1.00;;
16135;SDS011;8173;48.354;9.248;2023-03-19T03:33:47;2.72;;;2.25;;
16135;SDS011;8173;48.354;9.248;2023-03-19T03:36:14;1.00;;;1.00;;
16135;SDS011;8173;48.354;9.248;2023-03-19T03:38:41;3.58;;;2.25;;
16135;SDS011;8173;48.354;9.248;2023-03-19T03:41:08;2.67;;;2.30;;
16135;SDS011;8173;48.354;9.248;2023-03-19T03:43:35;1.00;;;0.90;;
16135;SDS011;8173;48.354;9.248;2023-03-19T03:46:02;1.42;;;1.00;;
16135;SDS011;8173;48.354;9.248;2023-03-19T03:48:28;3.55;;;2.28;;
16135;SDS011;8173;48.354;9.248;2023-03-19T03:50:56;2.80;;;2.25;;
16135;SDS011;8173;48.354;9.248;2023-03-19T03:53:23;1.48;;;1.33;;
16135;SDS011;8173;48.354;9.248;2023-03-19T03:55:50;1.85;;;1.73;;
16135;SDS011;8173;48.354;9.248;2023-03-19T03:58:16;10.18;;;1.50;;
16135;SDS011;8173;48.354;9.248;2023-03-19T04:00:43;1.13;;;1.08;;
16135;SDS011;8173;48.354;9.248;2023-03-19T04:03:11;0.90;;;0.90;;
16135;SDS011;8173;48.354;9.248;2023-03-19T04:05:38;4.03;;;2.22;;
16135;SDS011;8173;48.354;9.248;2023-03-19T04:08:07;3.58;;;3.05;;
16135;SDS011;8173;48.354;9.248;2023-03-19T04:10:33;2.72;;;2.15;;
16135;SDS011;8173;48.354;9.248;2023-03-19T04:13:00;2.92;;;2.50;;
16135;SDS011;8173;48.354;9.248;2023-03-19T04:15:27;1.42;;;1.23;;
16135;SDS011;8173;48.354;9.248;2023-03-19T04:17:54;1.40;;;1.23;;
16135;SDS011;8173;48.354;9.248;2023-03-19T04:20:21;5.65;;;1.98;;
16135;SDS011;8173;48.354;9.248;2023-03-19T04:22:48;2.38;;;2.15;;
16135;SDS011;8173;48.354;9.248;2023-03-19T04:25:16;4.03;;;1.30;;
16135;SDS011;8173;48.354;9.248;2023-03-19T04:27:43;8.07;;;4.00;;
16135;SDS011;8173;48.354;9.248;2023-03-19T04:30:11;2.35;;;2.03;;
16135;SDS011;8173;48.354;9.248;2023-03-19T04:32:39;1.17;;;1.10;;
16135;SDS011;8173;48.354;9.248;2023-03-19T04:35:08;0.70;;;0.70;;
16135;SDS011;8173;48.354;9.248;2023-03-19T04:37:36;0.80;;;0.80;;
16135;SDS011;8173;48.354;9.248;2023-03-19T04:40:03;5.38;;;4.88;;
16135;SDS011;8173;48.354;9.248;2023-03-19T04:42:31;7.32;;;1.75;;
16135;SDS011;8173;48.354;9.248;2023-03-19T04:44:58;0.50;;;0.50;;
16135;SDS011;8173;48.354;9.248;2023-03-19T04:47:25;0.70;;;0.70;;
16135;SDS011;8173;48.354;9.248;2023-03-19T04:49:51;0.70;;;0.70;;
16135;SDS011;8173;48.354;9.248;2023-03-19T04:52:18;0.70;;;0.70;;
16135;SDS011;8173;48.354;9.248;2023-03-19T04:54:45;0.60;;;0.60;;
16135;SDS011;8173;48.354;9.248;2023-03-19T04:57:12;0.70;;;0.70;;
16135;SDS011;8173;48.354;9.248;2023-03-19T04:59:40;0.60;;;0.60;;
16135;SDS011;8173;48.354;9.248;2023-03-19T05:02:06;0.60;;;0.60;;
16135;SDS011;8173;48.354;9.248;2023-03-19T05:04:33;1.10;;;1.02;;
16135;SDS011;8173;48.354;9.248;2023-03-19T05:07:01;0.60;;;0.60;;
16135;SDS011;8173;48.354;9.248;2023-03-19T05:09:28;0.60;;;0.60;;
16135;SDS011;8173;48.354;9.248;2023-03-19T05:11:55;0.70;;;0.70;;
16135;SDS011;8173;48.354;9.248;2023-03-19T05:14:22;0.60;;;0.60;;
16135;SDS011;8173;48.354;9.248;2023-03-19T05:16:51;1.70;;;1.60;;
16135;SDS011;8173;48.354;9.248;2023-03-19T05:19:18;1.25;;;1.15;;
16135;SDS011;8173;48.354;9.248;2023-03-19T05:21:45;0.63;;;0.63;;
16135;SDS011;8173;48.354;9.248;2023-03-19T05:24:11;0.57;;;0.57;;
16135;SDS011;8173;48.354;9.248;2023-03-19T05:26:38;2.65;;;1.65;;
16135;SDS011;8173;48.354;9.248;2023-03-19T05:29:05;2.85;;;2.22;;
16135;SDS011;8173;48.354;9.248;2023-03-19T05:31:34;4.60;;;1.33;;
16135;SDS011;8173;48.354;9.248;2023-03-19T05:34:03;4.00;;;2.42;;
16135;SDS011;8173;48.354;9.248;2023-03-19T05:36:30;2.03;;;1.48;;
16135;SDS011;8173;48.354;9.248;2023-03-19T05:38:56;4.00;;;3.08;;
16135;SDS011;8173;48.354;9.248;2023-03-19T05:41:23;1.45;;;1.30;;
16135;SDS011;8173;48.354;9.248;2023-03-19T05:43:50;1.77;;;1.40;;
16135;SDS011;8173;48.354;9.248;2023-03-19T05:46:16;0.85;;;0.85;;
16135;SDS011;8173;48.354;9.248;2023-03-19T05:48:43;0.60;;;0.60;;
16135;SDS011;8173;48.354;9.248;2023-03-19T05:51:11;1.08;;;1.00;;
16135;SDS011;8173;48.354;9.248;2023-03-19T05:53:38;0.60;;;0.60;;
16135;SDS011;8173;48.354;9.248;2023-03-19T05:56:05;0.70;;;0.70;;
16135;SDS011;8173;48.354;9.248;2023-03-19T05:58:32;0.80;;;0.80;;
16135;SDS011;8173;48.354;9.248;2023-03-19T06:00:58;0.70;;;0.70;;
16135;SDS011;8173;48.354;9.248;2023-03-19T06:03:25;0.70;;;0.70;;
16135;SDS011;8173;48.354;9.248;2023-03-19T06:05:52;0.70;;;0.70;;
16135;SDS011;8173;48.354;9.248;2023-03-19T06:08:20;1.58;;;1.02;;
16135;SDS011;8173;48.354;9.248;2023-03-19T06:10:47;0.50;;;0.50;;
16135;SDS011;8173;48.354;9.248;2023-03-19T06:13:14;0.68;;;0.68;;
16135;SDS011;8173;48.354;9.248;2023-03-19T06:15:41;0.60;;;0.60;;
16135;SDS011;8173;48.354;9.248;2023-03-19T06:18:07;0.60;;;0.60;;
16135;SDS011;8173;48.354;9.248;2023-03-19T06:20:34;0.80;;;0.80;;
16135;SDS011;8173;48.354;9.248;2023-03-19T06:23:01;0.70;;;0.70;;
16135;SDS011;8173;48.354;9.248;2023-03-19T06:25:29;0.60;;;0.60;;
16135;SDS011;8173;48.354;9.248;2023-03-19T06:27:55;1.52;;;1.17;;
16135;SDS011;8173;48.354;9.248;2023-03-19T06:30:22;2.10;;;1.90;;
16135;SDS011;8173;48.354;9.248;2023-03-19T06:32:49;3.20;;;2.55;;
16135;SDS011;8173;48.354;9.248;2023-03-19T06:35:16;3.47;;;2.40;;
16135;SDS011;8173;48.354;9.248;2023-03-19T06:37:42;3.20;;;2.20;;
16135;SDS011;8173;48.354;9.248;2023-03-19T06:40:09;2.88;;;1.85;;
16135;SDS011;8173;48.354;9.248;2023-03-19T06:42:38;2.10;;;1.90;;
16135;SDS011;8173;48.354;9.248;2023-03-19T06:45:05;3.10;;;2.30;;
16135;SDS011;8173;48.354;9.248;2023-03-19T06:47:33;3.38;;;2.78;;
16135;SDS011;8173;48.354;9.248;2023-03-19T06:49:59;3.58;;;2.20;;
16135;SDS011;8173;48.354;9.248;2023-03-19T06:52:26;2.97;;;2.20;;
16135;SDS011;8173;48.354;9.248;2023-03-19T06:54:53;7.43;;;2.15;;
16135;SDS011;8173;48.354;9.248;2023-03-19T06:57:20;2.08;;;1.80;;
16135;SDS011;8173;48.354;9.248;2023-03-19T06:59:48;4.32;;;3.33;;
16135;SDS011;8173;48.354;9.248;2023-03-19T07:02:15;1.75;;;1.23;;
16135;SDS011;8173;48.354;9.248;2023-03-19T07:04:42;2.17;;;1.75;;
16135;SDS011;8173;48.354;9.248;2023-03-19T07:07:09;2.30;;;1.63;;
16135;SDS011;8173;48.354;9.248;2023-03-19T07:09:36;1.38;;;1.25;;
16135;SDS011;8173;48.354;9.248;2023-03-19T07:12:03;2.25;;;1.98;;
16135;SDS011;8173;48.354;9.248;2023-03-19T07:14:30;2.58;;;2.08;;
16135;SDS011;8173;48.354;9.248;2023-03-19T07:16:58;2.45;;;1.98;;
16135;SDS011;8173;48.354;9.248;2023-03-19T07:19:24;4.35;;;2.13;;
16135;SDS011;8173;48.354;9.248;2023-03-19T07:21:51;1.88;;;1.67;;
16135;SDS011;8173;48.354;9.248;2023-03-19T07:24:18;5.00;;;3.30;;
16135;SDS011;8173;48.354;9.248;2023-03-19T07:26:45;3.05;;;2.38;;
16135;SDS011;8173;48.354;9.248;2023-03-19T07:29:11;5.75;;;3.47;;
16135;SDS011;8173;48.354;9.248;2023-03-19T07:31:39;0.73;;;0.73;;
16135;SDS011;8173;48.354;9.248;2023-03-19T07:34:07;1.13;;;1.02;;
16135;SDS011;8173;48.354;9.248;2023-03-19T07:36:34;3.67;;;2.80;;
16135;SDS011;8173;48.354;9.248;2023-03-19T07:39:01;0.90;;;0.90;;
16135;SDS011;8173;48.354;9.248;2023-03-19T07:41:27;0.68;;;0.68;;
16135;SDS011;8173;48.354;9.248;2023-03-19T07:43:54;0.60;;;0.60;;
16135;SDS011;8173;48.354;9.248;2023-03-19T07:46:21;0.77;;;0.77;;
16135;SDS011;8173;48.354;9.248;2023-03-19T07:48:48;1.58;;;1.38;;
16135;SDS011;8173;48.354;9.248;2023-03-19T07:51:16;0.60;;;0.60;;
16135;SDS011;8173;48.354;9.248;2023-03-19T07:53:43;1.15;;;1.00;;
16135;SDS011;8173;48.354;9.248;2023-03-19T07:56:10;1.60;;;1.50;;
16135;SDS011;8173;48.354;9.248;2023-03-19T07:58:37;1.27;;;0.85;;
16135;SDS011;8173;48.354;9.248;2023-03-19T08:01:04;1.02;;;1.00;;
16135;SDS011;8173;48.354;9.248;2023-03-19T08:03:31;1.92;;;1.70;;
16135;SDS011;8173;48.354;9.248;2023-03-19T08:05:58;1.75;;;1.40;;
16135;SDS011;8173;48.354;9.248;2023-03-19T08:08:26;2.42;;;1.50;;
16135;SDS011;8173;48.354;9.248;2023-03-19T08:10:53;10.18;;;2.40;;
16135;SDS011;8173;48.354;9.248;2023-03-19T08:13:21;4.97;;;1.98;;
16135;SDS011;8173;48.354;9.248;2023-03-19T08:15:48;2.20;;;2.00;;
16135;SDS011;8173;48.354;9.248;2023-03-19T08:18:15;4.10;;;2.72;;
16135;SDS011;8173;48.354;9.248;2023-03-19T08:20:42;3.75;;;2.30;;
16135;SDS011;8173;48.354;9.248;2023-03-19T08:23:09;3.17;;;2.17;;
16135;SDS011;8173;48.354;9.248;2023-03-19T08:25:38;6.65;;;2.75;;
16135;SDS011;8173;48.354;9.248;2023-03-19T08:28:05;2.25;;;1.83;;
16135;SDS011;8173;48.354;9.248;2023-03-19T08:30:33;1.98;;;1.77;;
16135;SDS011;8173;48.354;9.248;2023-03-19T08:33:01;2.05;;;1.75;;
16135;SDS011;8173;48.354;9.248;2023-03-19T08:35:28;2.78;;;1.90;;
16135;SDS011;8173;48.354;9.248;2023-03-19T08:37:55;4.63;;;2.40;;
16135;SDS011;8173;48.354;9.248;2023-03-19T08:40:22;3.53;;;2.40;;
16135;SDS011;8173;48.354;9.248;2023-03-19T08:42:51;1.80;;;1.60;;
16135;SDS011;8173;48.354;9.248;2023-03-19T08:45:19;3.05;;;2.58;;
16135;SDS011;8173;48.354;9.248;2023-03-19T08:47:47;11.25;;;3.05;;
16135;SDS011;8173;48.354;9.248;2023-03-19T08:50:15;2.67;;;2.20;;
16135;SDS011;8173;48.354;9.248;2023-03-19T08:52:43;3.83;;;2.10;;
16135;SDS011;8173;48.354;9.248;2023-03-19T08:55:09;3.65;;;2.03;;
16135;SDS011;8173;48.354;9.248;2023-03-19T08:57:36;6.18;;;2.58;;
16135;SDS011;8173;48.354;9.248;2023-03-19T09:00:05;6.43;;;3.22;;
16135;SDS011;8173;48.354;9.248;2023-03-19T09:02:32;2.13;;;1.58;;
16135;SDS011;8173;48.354;9.248;2023-03-19T09:05:00;2.90;;;2.22;;
16135;SDS011;8173;48.354;9.248;2023-03-19T09:07:26;3.78;;;2.20;;
16135;SDS011;8173;48.354;9.248;2023-03-19T09:09:53;4.50;;;2.28;;
16135;SDS011;8173;48.354;9.248;2023-03-19T09:12:20;4.45;;;2.45;;
16135;SDS011;8173;48.354;9.248;2023-03-19T09:14:46;3.00;;;1.92;;
16135;SDS011;8173;48.354;9.248;2023-03-19T09:17:14;2.60;;;2.25;;
16135;SDS011;8173;48.354;9.248;2023-03-19T09:19:42;3.00;;;2.08;;
16135;SDS011;8173;48.354;9.248;2023-03-19T09:22:08;2.22;;;1.80;;
16135;SDS011;8173;48.354;9.248;2023-03-19T09:24:35;2.97;;;2.33;;
16135;SDS011;8173;48.354;9.248;2023-03-19T09:27:02;3.28;;;2.53;;
16135;SDS011;8173;48.354;9.248;2023-03-19T09:29:29;3.80;;;3.00;;
16135;SDS011;8173;48.354;9.248;2023-03-19T09:31:56;3.95;;;2.22;;
16135;SDS011;8173;48.354;9.248;2023-03-19T09:34:25;2.10;;;1.40;;
16135;SDS011;8173;48.354;9.248;2023-03-19T09:36:52;1.88;;;1.45;;
16135;SDS011;8173;48.354;9.248;2023-03-19T09:39:19;1.75;;;1.50;;
16135;SDS011;8173;48.354;9.248;2023-03-19T09:41:48;1.85;;;1.60;;
16135;SDS011;8173;48.354;9.248;2023-03-19T09:44:26;1.90;;;1.70;;
16135;SDS011;8173;48.354;9.248;2023-03-19T09:46:55;2.58;;;1.88;;
16135;SDS011;8173;48.354;9.248;2023-03-19T09:49:29;4.82;;;2.67;;
16135;SDS011;8173;48.354;9.248;2023-03-19T09:51:59;2.10;;;1.75;;
16135;SDS011;8173;48.354;9.248;2023-03-19T09:54:32;3.72;;;1.73;;
16135;SDS011;8173;48.354;9.248;2023-03-19T09:57:03;5.78;;;2.92;;
16135;SDS011;8173;48.354;9.248;2023-03-19T09:59:29;2.38;;;1.98;;
16135;SDS011;8173;48.354;9.248;2023-03-19T10:01:58;3.55;;;2.28;;
16135;SDS011;8173;48.354;9.248;2023-03-19T10:04:45;1.92;;;1.73;;
16135;SDS011;8173;48.354;9.248;2023-03-19T10:07:24;2.75;;;1.88;;
16135;SDS011;8173;48.354;9.248;2023-03-19T10:10:14;3.33;;;1.88;;
16135;SDS011;8173;48.354;9.248;2023-03-19T10:12:53;3.45;;;2.58;;
16135;SDS011;8173;48.354;9.248;2023-03-19T10:15:25;2.97;;;2.15;;
16135;SDS011;8173;48.354;9.248;2023-03-19T10:17:55;4.00;;;2.60;;
16135;SDS011;8173;48.354;9.248;2023-03-19T10:20:31;3.28;;;2.30;;
16135;SDS011;8173;48.354;9.248;2023-03-19T10:23:07;5.25;;;3.00;;
16135;SDS011;8173;48.354;9.248;2023-03-19T10:25:59;3.03;;;2.03;;
16135;SDS011;8173;48.354;9.248;2023-03-19T10:28:28;3.17;;;2.42;;
16135;SDS011;8173;48.354;9.248;2023-03-19T10:30:57;4.82;;;2.55;;
16135;SDS011;8173;48.354;9.248;2023-03-19T10:33:34;4.13;;;2.58;;
16135;SDS011;8173;48.354;9.248;2023-03-19T10:36:18;2.50;;;2.30;;
16135;SDS011;8173;48.354;9.248;2023-03-19T10:38:47;1.52;;;1.42;;
16135;SDS011;8173;48.354;9.248;2023-03-19T10:41:23;2.55;;;1.70;;
16135;SDS011;8173;48.354;9.248;2023-03-19T10:43:57;3.10;;;2.38;;
16135;SDS011;8173;48.354;9.248;2023-03-19T10:46:26;4.47;;;1.88;;
16135;SDS011;8173;48.354;9.248;2023-03-19T10:48:53;1.98;;;1.73;;
16135;SDS011;8173;48.354;9.248;2023-03-19T10:51:25;9.65;;;1.90;;
16135;SDS011;8173;48.354;9.248;2023-03-19T10:53:52;0.82;;;0.82;;
16135;SDS011;8173;48.354;9.248;2023-03-19T10:56:21;1.30;;;1.20;;
16135;SDS011;8173;48.354;9.248;2023-03-19T10:58:56;1.52;;;1.15;;
16135;SDS011;8173;48.354;9.248;2023-03-19T11:01:30;3.90;;;1.83;;
16135;SDS011;8173;48.354;9.248;2023-03-19T11:03:58;2.90;;;2.22;;
16135;SDS011;8173;48.354;9.248;2023-03-19T11:06:31;2.90;;;2.15;;
16135;SDS011;8173;48.354;9.248;2023-03-19T11:09:00;3.60;;;2.10;;
16135;SDS011;8173;48.354;9.248;2023-03-19T11:11:41;3.28;;;2.13;;
16135;SDS011;8173;48.354;9.248;2023-03-19T11:14:13;2.17;;;1.63;;
16135;SDS011;8173;48.354;9.248;2023-03-19T11:16:48;3.53;;;1.92;;
16135;SDS011;8173;48.354;9.248;2023-03-19T11:19:20;5.93;;;1.80;;
16135;SDS011;8173;48.354;9.248;2023-03-19T11:21:53;3.17;;;1.15;;
16135;SDS011;8173;48.354;9.248;2023-03-19T11:24:26;5.22;;;1.73;;
16135;SDS011;8173;48.354;9.248;2023-03-19T11:26:56;2.97;;;1.60;;
16135;SDS011;8173;48.354;9.248;2023-03-19T11:29:23;2.92;;;2.13;;
16135;SDS011;8173;48.354;9.248;2023-03-19T11:31:53;0.70;;;0.70;;
16135;SDS011;8173;48.354;9.248;2023-03-19T11:34:28;0.60;;;0.60;;
16135;SDS011;8173;48.354;9.248;2023-03-19T11:37:03;1.27;;;1.17;;
16135;SDS011;8173;48.354;9.248;2023-03-19T11:39:37;4.13;;;2.17;;
16135;SDS011;8173;48.354;9.248;2023-03-19T11:45:07;3.60;;;2.22;;
16135;SDS011;8173;48.354;9.248;2023-03-19T11:47:43;1.10;;;1.00;;
16135;SDS011;8173;48.354;9.248;2023-03-19T11:50:22;0.80;;;0.80;;
16135;SDS011;8173;48.354;9.248;2023-03-19T11:53:01;1.25;;;1.15;;
16135;SDS011;8173;48.354;9.248;2023-03-19T11:55:37;3.10;;;1.33;;
16135;SDS011;8173;48.354;9.248;2023-03-19T11:58:17;2.78;;;1.95;;
16135;SDS011;8173;48.354;9.248;2023-03-19T12:01:01;1.80;;;1.60;;
16135;SDS011;8173;48.354;9.248;2023-03-19T12:03:36;0.60;;;0.60;;
16135;SDS011;8173;48.354;9.248;2023-03-19T12:06:18;0.70;;;0.70;;
16135;SDS011;8173;48.354;9.248;2023-03-19T12:09:00;0.70;;;0.70;;
16135;SDS011;8173;48.354;9.248;2023-03-19T12:11:30;0.43;;;0.43;;
16135;SDS011;8173;48.354;9.248;2023-03-19T12:14:05;1.60;;;1.50;;
16135;SDS011;8173;48.354;9.248;2023-03-19T12:16:46;3.75;;;1.80;;
16135;SDS011;8173;48.354;9.248;2023-03-19T12:22:28;0.80;;;0.80;;
16135;SDS011;8173;48.354;9.248;2023-03-19T12:25:13;0.70;;;0.70;;
16135;SDS011;8173;48.354;9.248;2023-03-19T12:27:52;3.50;;;1.15;;
16135;SDS011;8173;48.354;9.248;2023-03-19T12:30:27;1.30;;;1.00;;
16135;SDS011;8173;48.354;9.248;2023-03-19T12:33:03;1.55;;;1.20;;
16135;SDS011;8173;48.354;9.248;2023-03-19T12:35:41;0.50;;;0.50;;
16135;SDS011;8173;48.354;9.248;2023-03-19T12:38:16;1.27;;;1.17;;
16135;SDS011;8173;48.354;9.248;2023-03-19T12:40:48;1.77;;;1.67;;
16135;SDS011;8173;48.354;9.248;2023-03-19T12:43:20;1.17;;;1.08;;
16135;SDS011;8173;48.354;9.248;2023-03-19T12:45:51;1.13;;;1.05;;
16135;SDS011;8173;48.354;9.248;2023-03-19T12:48:24;2.45;;;0.90;;
16135;SDS011;8173;48.354;9.248;2023-03-19T12:50:55;1.48;;;1.20;;
16135;SDS011;8173;48.354;9.248;2023-03-19T12:53:29;1.10;;;1.00;;
16135;SDS011;8173;48.354;9.248;2023-03-19T12:56:03;0.70;;;0.70;;
16135;SDS011;8173;48.354;9.248;2023-03-19T12:58:36;2.15;;;1.20;;
16135;SDS011;8173;48.354;9.248;2023-03-19T13:01:12;0.50;;;0.50;;
16135;SDS011;8173;48.354;9.248;2023-03-19T13:03:45;1.05;;;1.05;;
16135;SDS011;8173;48.354;9.248;2023-03-19T13:06:19;0.82;;;0.82;;
16135;SDS011;8173;48.354;9.248;2023-03-19T13:08:49;0.50;;;0.50;;
16135;SDS011;8173;48.354;9.248;2023-03-19T13:11:23;0.98;;;0.88;;
16135;SDS011;8173;48.354;9.248;2023-03-19T13:13:57;3.40;;;1.73;;
16135;SDS011;8173;48.354;9.248;2023-03-19T13:16:30;2.20;;;1.20;;
16135;SDS011;8173;48.354;9.248;2023-03-19T13:19:04;2.58;;;0.88;;
16135;SDS011;8173;48.354;9.248;2023-03-19T13:21:38;2.63;;;1.10;;
16135;SDS011;8173;48.354;9.248;2023-03-19T13:24:11;1.33;;;1.13;;
16135;SDS011;8173;48.354;9.248;2023-03-19T13:26:46;1.40;;;1.30;;
16135;SDS011;8173;48.354;9.248;2023-03-19T13:29:16;3.95;;;1.50;;
16135;SDS011;8173;48.354;9.248;2023-03-19T13:31:44;1.40;;;1.20;;
16135;SDS011;8173;48.354;9.248;2023-03-19T13:34:19;3.22;;;1.52;;
16135;SDS011;8173;48.354;9.248;2023-03-19T13:36:51;2.20;;;1.40;;
16135;SDS011;8173;48.354;9.248;2023-03-19T13:39:23;1.45;;;1.35;;
16135;SDS011;8173;48.354;9.248;2023-03-19T13:41:56;2.17;;;1.60;;
16135;SDS011;8173;48.354;9.248;2023-03-19T13:44:34;0.63;;;0.63;;
16135;SDS011;8173;48.354;9.248;2023-03-19T13:50:10;3.92;;;1.30;;
16135;SDS011;8173;48.354;9.248;2023-03-19T13:53:11;1.13;;;0.90;;
16135;SDS011;8173;48.354;9.248;2023-03-19T13:55:51;0.70;;;0.70;;
16135;SDS011;8173;48.354;9.248;2023-03-19T13:58:22;0.50;;;0.50;;
16135;SDS011;8173;48.354;9.248;2023-03-19T14:01:09;0.50;;;0.50;;
16135;SDS011;8173;48.354;9.248;2023-03-19T14:03:38;0.65;;;0.65;;
16135;SDS011;8173;48.354;9.248;2023-03-19T14:08:56;0.60;;;0.60;;
16135;SDS011;8173;48.354;9.248;2023-03-19T14:11:24;0.70;;;0.70;;
16135;SDS011;8173;48.354;9.248;2023-03-19T14:13:57;0.60;;;0.60;;
16135;SDS011;8173;48.354;9.248;2023-03-19T14:16:29;0.60;;;0.60;;
16135;SDS011;8173;48.354;9.248;2023-03-19T14:18:59;0.50;;;0.50;;
16135;SDS011;8173;48.354;9.248;2023-03-19T14:21:31;0.50;;;0.50;;
16135;SDS011;8173;48.354;9.248;2023-03-19T14:26:53;0.50;;;0.50;;
16135;SDS011;8173;48.354;9.248;2023-03-19T14:29:24;0.60;;;0.60;;
16135;SDS011;8173;48.354;9.248;2023-03-19T14:31:52;0.50;;;0.50;;
16135;SDS011;8173;48.354;9.248;2023-03-19T14:34:21;0.50;;;0.50;;
16135;SDS011;8173;48.354;9.248;2023-03-19T14:36:55;0.70;;;0.70;;
16135;SDS011;8173;48.354;9.248;2023-03-19T14:39:26;0.50;;;0.50;;
16135;SDS011;8173;48.354;9.248;2023-03-19T14:41:57;0.60;;;0.60;;
16135;SDS011;8173;48.354;9.248;2023-03-19T14:44:38;0.50;;;0.50;;
16135;SDS011;8173;48.354;9.248;2023-03-19T14:47:22;0.60;;;0.60;;
16135;SDS011;8173;48.354;9.248;2023-03-19T14:50:11;0.60;;;0.60;;
16135;SDS011;8173;48.354;9.248;2023-03-19T14:52:49;0.50;;;0.50;;
16135;SDS011;8173;48.354;9.248;2023-03-19T14:55:22;0.40;;;0.40;;
16135;SDS011;8173;48.354;9.248;2023-03-19T14:57:59;0.60;;;0.60;;
16135;SDS011;8173;48.354;9.248;2023-03-19T15:00:28;0.70;;;0.70;;
16135;SDS011;8173;48.354;9.248;2023-03-19T15:03:06;0.50;;;0.50;;
16135;SDS011;8173;48.354;9.248;2023-03-19T15:05:44;0.50;;;0.50;;
16135;SDS011;8173;48.354;9.248;2023-03-19T15:08:14;0.50;;;0.50;;
16135;SDS011;8173;48.354;9.248;2023-03-19T15:10:47;0.47;;;0.47;;
16135;SDS011;8173;48.354;9.248;2023-03-19T15:13:28;0.50;;;0.50;;
16135;SDS011;8173;48.354;9.248;2023-03-19T15:16:08;0.50;;;0.50;;
16135;SDS011;8173;48.354;9.248;2023-03-19T15:18:45;0.55;;;0.55;;
16135;SDS011;8173;48.354;9.248;2023-03-19T15:21:12;0.50;;;0.50;;
16135;SDS011;8173;48.354;9.248;2023-03-19T15:23:38;0.50;;;0.50;;
16135;SDS011;8173;48.354;9.248;2023-03-19T15:26:09;0.60;;;0.60;;
16135;SDS011;8173;48.354;9.248;2023-03-19T15:28:43;0.60;;;0.60;;
16135;SDS011;8173;48.354;9.248;2023-03-19T15:31:13;0.52;;;0.52;;